Last 30 Days

Middletown-South

Daily Data | America/Los_Angeles
as of 1/29/23 10:59 AM PST
Date Daily Max Temp (°F) Time of Max Temp Daily Min Temp (°F) Time of Min Temp Daily Rain (In) Month Precip (In) Season Precip (In) Wind Spd (mph) Daily Max Wind (mph) Time of Max Wind Max Wind Dir (°) Dew Pt (°F) Max RH (%) Min RH (%) Hrs <= 32F (hrs) Hrs <= 28F (hrs) Daily Leaf Wet Hrs (hrs) Degree Hrs (hrs) Hrs 70-85F (hrs) Hrs > 95F (hrs) Storm Total (In) Daily Max Rain Intensity (In/Hr) Time of Max Rain Intensity Max 1 Min Rain (In) Max 1 Min Rain Time Max 15 Min Rain (In) Max 15 Min Precip Time Max 60 Min Rain (In) GDDs (DL) MinBV Day (V)
1/28/23 58.8 1146 30.2 0705 0.00 22.17 42.07 2.5 15.4 1448 W | 261 33.0 97 34 3.2 0.0 12.5 0.0 0.00 0.00 - - - - - - - - 1.7 12.5
1/27/23 68.6 1451 30.8 0720 0.00 22.17 42.07 2.3 16.9 1558 W | 265 33.9 96 25 2.5 0.0 9.1 2.3 0.00 0.00 - - - - - - - - 4.6 12.5
1/26/23 72.0 1522 36.9 2359 0.00 22.17 42.07 4.1 25.3 0409 N | 11 29.9 88 16 0.0 0.0 0.0 18.2 1.43 0.00 - - - - - - - - 7.5 12.5
1/25/23 68.0 1531 32.8 0659 0.00 22.17 42.07 4.5 23.6 1200 NNE | 16 28.1 91 18 0.0 0.0 0.0 8.8 0.00 0.00 - - - - - - - - 7.6 12.5
1/24/23 69.4 1513 37.7 0746 0.00 22.17 42.07 3.2 16.3 1537 NNW | 340 27.5 79 11 0.0 0.0 0.0 16.0 0.00 0.00 - - - - - - - - 5.3 12.5
1/23/23 62.9 1458 40.0 0821 0.00 22.17 42.07 6.9 31.8 0945 NNE | 18 15.6 52 10 0.0 0.0 0.0 0.0 0.00 0.00 - - - - - - - - 4.6 12.6
1/22/23 56.3 1422 30.5 0735 0.00 22.17 42.07 4.3 25.4 2210 ENE | 66 24.0 100 13 1.8 0.0 6.8 0.0 0.00 0.00 - - - - - - - - 1.1 12.5
1/21/23 59.3 1448 26.5 0552 0.00 22.17 42.07 1.8 15.6 2228 ESE | 114 28.6 93 24 8.6 5.9 6.0 0.0 0.00 0.00 - - - - - - - - 1.2 12.5
1/20/23 54.0 1529 28.4 2348 0.00 22.17 42.07 3.6 17.1 0016 NNE | 31 22.0 90 20 4.0 0.0 0.0 0.0 0.00 0.00 - - - - - - - - 0.5 12.6
1/19/23 51.8 1423 29.7 0731 0.00 22.17 42.07 2.5 15.7 1126 NNW | 335 31.3 100 35 4.4 0.0 12.7 0.0 0.00 0.00 - 0.01 0001 - - - - 0.01 0.1 12.5
1/18/23 52.5 1228 29.1 0736 0.72 22.17 42.07 2.5 28.6 1922 S | 170 36.5 100 58 7.4 0.0 18.4 0.0 0.00 0.00 0.72 0.88 1957 0.01 1544 0.10 1959 0.30 0.1 12.6
1/17/23 55.4 1504 28.6 0731 0.00 21.45 41.35 1.3 8.0 1626 SW | 220 32.4 100 37 7.8 0.0 15.0 0.0 0.00 0.00 - - - - - - - - 0.6 12.6
1/16/23 52.0 1201 32.4 2349 0.03 21.45 41.35 3.0 20.3 1134 WNW | 289 35.4 97 44 0.0 0.0 10.6 0.0 0.00 0.00 4.71 0.04 0001 0.01 0015 0.01 0001 0.05 0.0 12.6
1/15/23 48.8 1224 40.3 0438 0.41 21.42 41.32 1.8 13.4 1410 SW | 236 41.2 98 72 0.0 0.0 20.5 0.0 0.00 0.00 4.68 0.13 0509 0.01 0447 0.03 0510 0.07 0.0 12.6
1/14/23 53.3 0751 39.7 2150 2.35 21.01 40.91 4.5 30.8 0807 SW | 215 44.8 100 75 0.0 0.0 20.9 0.0 0.00 0.00 4.27 1.56 1313 0.02 0516 0.14 1746 0.38 0.5 12.5
1/13/23 58.4 0008 47.7 0753 1.92 18.66 38.56 4.4 27.6 1313 SSW | 202 46.8 96 47 0.0 0.0 21.5 0.0 0.00 0.00 1.92 2.40 1830 0.03 1831 0.18 1835 0.36 1.7 12.6
1/12/23 63.2 1423 46.5 0757 0.01 16.74 36.64 2.8 20.4 2039 SSW | 212 45.2 100 43 0.0 0.0 4.3 0.0 0.00 0.00 16.74 0.07 0001 0.01 0012 0.01 0012 0.03 5.3 12.5
1/11/23 47.7 2348 42.8 0034 2.24 16.73 36.63 1.6 10.0 0433 SE | 138 45.2 100 88 0.0 0.0 24.0 0.0 0.00 0.00 16.73 0.80 1943 0.02 1801 0.12 1548 0.34 0.0 12.5
1/10/23 49.6 0335 38.3 0001 2.93 14.49 34.39 7.0 39.1 0600 SSW | 197 42.2 100 75 0.0 0.0 22.9 0.0 0.00 0.00 14.49 2.57 0749 0.03 0750 0.18 1723 0.43 0.0 12.6
1/9/23 56.9 1429 37.4 2313 2.40 11.56 31.46 3.3 28.2 0819 SSW | 208 45.2 100 57 0.0 0.0 15.0 0.0 0.00 0.00 11.56 1.64 0525 0.02 0102 0.18 0526 0.48 2.1 12.6
1/8/23 55.6 1237 45.9 0025 1.16 9.16 29.06 4.3 41.6 0249 SW | 225 44.9 97 57 0.0 0.0 8.1 0.0 0.00 0.00 9.16 1.90 0119 0.02 0004 0.16 0004 0.55 1.3 12.5
1/7/23 50.2 0249 44.5 1349 2.55 8.00 27.90 3.7 36.8 0247 SW | 218 42.6 97 61 0.0 0.0 23.2 0.0 0.00 0.00 8.00 5.14 2326 0.06 2327 0.20 2337 0.52 0.0 12.5
1/6/23 51.9 1223 43.4 0207 0.35 5.45 25.35 1.6 13.5 0905 SSW | 194 45.5 100 81 0.0 0.0 19.0 0.0 0.00 0.00 5.45 0.25 1518 0.01 0211 0.04 1458 0.07 0.1 12.5
1/5/23 53.4 0121 44.0 2237 1.42 5.10 25.00 5.9 34.1 0229 WSW | 241 44.3 96 73 0.0 0.0 11.9 0.0 0.00 0.00 5.10 1.71 0652 0.03 0653 0.17 0659 0.43 0.7 12.5
1/4/23 54.0 2221 39.4 0155 2.98 3.68 23.58 3.9 35.6 2158 S | 176 45.5 100 72 0.0 0.0 22.4 0.0 0.00 0.00 3.68 0.95 1615 0.02 1616 0.18 1644 0.54 1.0 12.5
1/3/23 42.9 1443 33.7 0001 0.03 0.70 20.60 0.8 5.0 1714 NNW | 337 38.2 100 89 0.0 0.0 22.9 0.0 0.00 0.00 0.70 0.02 0001 0.01 0519 0.01 0519 0.01 0.0 12.4
1/2/23 44.3 1318 32.0 2001 0.67 0.67 20.57 1.4 7.5 0810 NE | 45 32.6 100 57 0.0 0.0 13.1 0.0 0.00 0.00 0.67 0.97 1622 0.02 1623 0.08 1624 0.21 0.0 12.5
1/1/23 58.3 1434 32.7 2121 0.00 0.00 19.90 3.7 22.4 1200 NE | 45 31.4 100 17 0.0 0.0 12.7 0.0 0.00 0.00 - - - - - - - - 1.7 12.4
12/31/22 56.3 0156 40.1 2316 1.12 15.69 19.90 2.4 19.4 0033 SW | 236 46.6 100 65 0.0 0.0 19.2 0.0 0.00 0.00 4.31 0.40 0838 0.01 0429 0.07 0810 0.24 1.2 12.5
12/30/22 58.6 1338 45.9 0001 1.79 14.57 18.78 6.7 33.0 1220 S | 187 53.0 100 87 0.0 0.0 23.9 0.0 0.00 0.00 3.19 1.44 1651 0.02 1302 0.14 1501 0.41 5.4 12.5
Max 72.0 - 47.7 - 2.98 22.17 42.07 7.0 41.6 - - 53.0 100 89 8.6 5.9 24.0 18.2 1.43 0.00 16.74 5.14 - 0.06 - 0.20 - 0.55 7.6 12.6
Avg - - - - - - - 3.4 - - - 37.1 - - 1.3 0.2 - - 0.05 0.00 6.45 - - - - - - - 1.9 -
Min 42.9 - 26.5 - 0.00 0.00 18.78 0.8 5.0 - - 15.6 52 10 0.0 0.0 0.0 0.0 0.00 0.00 0.67 0.01 - 0.01 - 0.01 - 0.01 0.0 12.4
Total - - - - - - - - - - - - - - 39.9 5.9 - - 1.43 0.00 - - - - - - - - 55.8 -